Time;durP1;ratioP1;P1;durP2;ratioP2;P2;SDS_P1;SDS_P2;PMS_P1;PMS_P2;Temp;Humidity;BMP_temperature;BMP_pressure;BME280_temperature;BME280_humidity;BME280_pressure;Samples;Min_cycle;Max_cycle;Signal;HPM_P1;HPM_P2
2022/07/21 00:02:00;;;;;;;9.82;4.00;;;30.00;24.20;;;;;;21258735;27;20095;-55
2022/07/21 00:12:03;;;;;;;9.18;3.75;;;30.00;24.90;;;;;;21256853;27;20406;-58
2022/07/21 00:22:05;;;;;;;7.22;3.35;;;30.00;26.80;;;;;;21256151;27;20082;-56
2022/07/21 00:32:07;;;;;;;8.98;3.78;;;29.90;30.40;;;;;;21255892;27;20512;-57
2022/07/21 00:42:29;;;;;;;8.02;3.15;;;29.80;33.40;;;;;;21253303;27;20410;-56
2022/07/21 00:52:31;;;;;;;7.75;3.17;;;29.70;35.00;;;;;;21251406;27;20104;-54
2022/07/21 01:02:36;;;;;;;7.28;2.75;;;29.60;36.60;;;;;;21252091;27;20440;-56
2022/07/21 01:12:37;;;;;;;12.52;2.85;;;29.50;37.20;;;;;;21250109;27;20047;-55
2022/07/21 01:22:42;;;;;;;8.40;4.28;;;29.40;37.80;;;;;;21249724;27;20107;-54
2022/07/21 01:32:45;;;;;;;10.43;3.13;;;29.20;37.60;;;;;;21248990;27;20043;-56
2022/07/21 01:42:56;;;;;;;9.13;2.50;;;29.10;37.50;;;;;;21231735;27;20138;-56
2022/07/21 01:53:12;;;;;;;6.10;2.50;;;29.10;37.50;;;;;;21248326;27;20047;-56
2022/07/21 02:03:18;;;;;;;7.95;2.67;;;29.00;37.40;;;;;;21248872;28;20055;-58
2022/07/21 02:13:22;;;;;;;7.68;2.17;;;29.00;37.50;;;;;;21248024;28;20039;-56
2022/07/21 02:23:25;;;;;;;4.93;2.17;;;28.90;37.30;;;;;;21246254;28;20086;-57
2022/07/21 02:33:29;;;;;;;4.22;2.38;;;28.80;37.60;;;;;;21262385;27;20047;-54
2022/07/21 02:43:32;;;;;;;4.20;2.53;;;28.70;37.10;;;;;;21262701;27;20160;-54
2022/07/21 02:53:34;;;;;;;6.60;2.45;;;28.50;36.70;;;;;;21261529;27;20050;-56
2022/07/21 03:03:37;;;;;;;6.63;2.60;;;28.40;36.90;;;;;;21260506;27;20137;-56
2022/07/21 03:13:38;;;;;;;3.38;2.58;;;28.40;37.20;;;;;;21259983;27;20550;-55
2022/07/21 03:23:45;;;;;;;5.60;2.50;;;28.40;37.50;;;;;;21259343;27;20051;-55
2022/07/21 03:33:46;;;;;;;5.50;2.10;;;28.30;37.60;;;;;;21258059;27;20047;-55
2022/07/21 03:43:48;;;;;;;4.53;2.60;;;28.30;37.70;;;;;;21256908;27;20058;-56
2022/07/21 03:53:53;;;;;;;4.38;2.45;;;28.30;38.10;;;;;;21257037;27;20492;-57
2022/07/21 04:03:55;;;;;;;4.40;2.78;;;28.20;38.50;;;;;;21255942;27;20053;-55
2022/07/21 04:14:16;;;;;;;;;;;28.10;38.20;;;;;;21255437;27;20043;-57
2022/07/21 04:24:19;;;;;;;6.55;3.85;;;28.00;38.30;;;;;;21254792;27;19923;-57
2022/07/21 04:34:22;;;;;;;6.35;3.42;;;28.00;37.90;;;;;;21254158;27;20054;-56
2022/07/21 04:44:25;;;;;;;6.43;3.88;;;28.00;37.80;;;;;;21252705;27;20104;-55
2022/07/21 04:54:28;;;;;;;11.65;4.95;;;28.00;37.70;;;;;;21251752;27;20081;-56
2022/07/21 05:04:31;;;;;;;10.75;5.38;;;27.80;37.60;;;;;;21250908;27;20070;-56
2022/07/21 05:14:48;;;;;;;12.55;5.30;;;27.70;37.90;;;;;;21249602;27;20047;-57
2022/07/21 05:25:09;;;;;;;8.18;5.10;;;27.60;38.10;;;;;;21249529;27;20051;-55
2022/07/21 05:35:30;;;;;;;;;;;27.60;38.10;;;;;;21248880;27;20047;-57
2022/07/21 05:45:42;;;;;;;9.40;5.15;;;27.50;38.00;;;;;;21248470;27;20018;-56
2022/07/21 05:55:46;;;;;;;7.97;5.05;;;27.60;38.10;;;;;;21247504;27;20074;-56
2022/07/21 06:05:49;;;;;;;8.43;4.78;;;27.50;37.70;;;;;;21247678;27;20051;-55
2022/07/21 06:15:51;;;;;;;8.75;4.72;;;27.40;37.80;;;;;;21246513;28;20048;-57
2022/07/21 06:25:55;;;;;;;8.27;4.45;;;27.40;37.70;;;;;;21246405;28;20082;-56
2022/07/21 06:35:57;;;;;;;9.40;4.90;;;27.50;37.50;;;;;;21227465;27;20126;-55
2022/07/21 06:45:59;;;;;;;8.82;4.82;;;27.60;37.20;;;;;;21245323;28;20053;-60
2022/07/21 06:56:02;;;;;;;9.35;4.38;;;27.80;36.70;;;;;;21244981;28;20551;-57
2022/07/21 07:06:05;;;;;;;6.53;4.57;;;28.00;36.50;;;;;;21245166;28;20040;-57
2022/07/21 07:16:06;;;;;;;8.27;4.28;;;28.60;35.60;;;;;;21252646;27;20167;-54
2022/07/21 07:26:09;;;;;;;5.50;3.88;;;29.20;34.50;;;;;;21260731;27;20085;-55
2022/07/21 07:36:12;;;;;;;7.13;3.72;;;29.80;33.60;;;;;;21318037;27;20054;-57
2022/07/21 07:46:15;;;;;;;8.10;4.22;;;30.30;33.00;;;;;;21333439;27;20051;-55
2022/07/21 07:56:17;;;;;;;4.80;2.72;;;30.60;32.70;;;;;;21338664;27;20098;-56
2022/07/21 08:06:19;;;;;;;8.43;3.10;;;31.10;30.60;;;;;;21340246;27;20043;-56
2022/07/21 08:16:21;;;;;;;4.60;2.65;;;31.30;30.20;;;;;;21312524;27;20058;-56
2022/07/21 08:26:24;;;;;;;8.27;2.95;;;31.40;30.00;;;;;;21339346;27;20043;-58
2022/07/21 08:36:26;;;;;;;6.95;3.50;;;31.70;29.70;;;;;;21283653;27;20048;-58
2022/07/21 08:46:29;;;;;;;5.63;2.28;;;31.80;28.80;;;;;;21167571;28;20098;-55
2022/07/21 08:56:32;;;;;;;8.75;2.60;;;32.00;28.70;;;;;;21167215;28;20168;-56
2022/07/21 09:06:58;;;;;;;5.32;2.40;;;32.30;28.10;;;;;;21164648;28;20088;-55
2022/07/21 09:17:03;;;;;;;5.53;2.60;;;32.60;27.40;;;;;;21164639;28;20047;-62
2022/07/21 09:27:18;;;;;;;18.63;3.65;;;32.60;27.80;;;;;;21163858;28;20039;-56
2022/07/21 09:37:22;;;;;;;5.07;2.72;;;33.00;28.70;;;;;;21197569;27;20055;-55
2022/07/21 09:47:27;;;;;;;14.10;3.33;;;32.60;27.80;;;;;;21248570;27;20138;-55
2022/07/21 09:57:29;;;;;;;7.40;3.58;;;33.00;27.70;;;;;;21246302;27;20130;-56
2022/07/21 10:07:35;;;;;;;5.82;2.72;;;33.00;27.70;;;;;;21247217;27;20054;-58
2022/07/21 10:17:39;;;;;;;5.85;2.75;;;33.20;27.20;;;;;;21246692;28;20493;-57
2022/07/21 10:28:09;;;;;;;7.93;2.78;;;33.30;27.40;;;;;;21246876;28;20451;-58
2022/07/21 10:38:32;;;;;;;6.43;2.30;;;33.40;26.40;;;;;;21226989;28;20051;-57
2022/07/21 10:48:37;;;;;;;6.38;2.95;;;33.60;26.30;;;;;;21251646;27;20107;-58
2022/07/21 10:58:40;;;;;;;4.70;2.53;;;33.70;26.00;;;;;;21261453;27;20070;-58
2022/07/21 11:08:48;;;;;;;11.05;2.70;;;33.90;26.10;;;;;;21259908;27;20130;-54
2022/07/21 11:18:49;;;;;;;10.57;2.72;;;33.90;26.10;;;;;;21259576;27;20552;-55
2022/07/21 11:29:05;;;;;;;5.60;2.88;;;34.00;25.60;;;;;;21259263;27;20035;-56
2022/07/21 11:39:14;;;;;;;6.47;2.83;;;34.20;25.90;;;;;;21258286;27;20055;-53
2022/07/21 11:49:16;;;;;;;5.85;2.67;;;34.30;25.40;;;;;;21257628;27;20145;-54
2022/07/21 11:59:19;;;;;;;8.90;2.90;;;34.50;25.70;;;;;;21255577;27;20065;-55
2022/07/21 12:09:21;;;;;;;7.53;3.55;;;34.70;25.20;;;;;;21254771;27;20092;-57
2022/07/21 12:19:24;;;;;;;8.82;2.80;;;34.90;25.40;;;;;;21253758;27;20054;-55
2022/07/21 12:29:28;;;;;;;4.63;2.60;;;35.10;24.70;;;;;;21255113;27;20130;-54
2022/07/21 12:50:13;;;;;;;8.98;3.33;;;35.20;24.60;;;;;;20990220;28;20386;-54
2022/07/21 13:00:15;;;;;;;5.40;2.80;;;35.60;24.20;;;;;;20990371;28;20056;-56
2022/07/21 13:10:17;;;;;;;7.00;3.10;;;35.70;24.10;;;;;;20988749;28;20048;-58
2022/07/21 13:20:20;;;;;;;7.13;3.10;;;;;;;;;;21121075;27;20371;-57
2022/07/21 13:30:23;;;;;;;6.30;2.65;;;;;;;;;;21250764;27;20046;-55
2022/07/21 13:40:27;;;;;;;4.97;2.80;;;;;;;;;;21249435;27;20191;-56
2022/07/21 13:50:31;;;;;;;5.45;2.70;;;;;;;;;;21249671;27;20402;-58
2022/07/21 14:00:35;;;;;;;6.13;2.45;;;;;;;;;;21248897;27;20107;-56
2022/07/21 14:10:37;;;;;;;5.72;3.05;;;;;;;;;;21247492;28;20124;-55
2022/07/21 14:20:40;;;;;;;6.10;3.10;;;;;;;;;;21249175;27;20479;-56
2022/07/21 14:30:42;;;;;;;6.53;2.92;;;;;;;;;;21264980;27;20054;-57
2022/07/21 14:40:44;;;;;;;9.35;3.15;;;;;;;;;;21263732;27;20372;-55
2022/07/21 14:50:46;;;;;;;6.22;2.70;;;;;;;;;;21262393;27;20066;-56
2022/07/21 15:00:48;;;;;;;6.85;2.78;;;;;;;;;;21261999;27;20066;-56
2022/07/21 15:10:50;;;;;;;4.88;2.90;;;;;;;;;;21261108;27;20051;-56
2022/07/21 15:20:52;;;;;;;6.15;3.72;;;;;;;;;;21261605;27;20087;-57
2022/07/21 15:30:55;;;;;;;5.80;3.15;;;;;;;;;;21260923;27;20083;-55
2022/07/21 15:40:57;;;;;;;6.93;3.45;;;;;;;;;;21258625;27;20055;-56
2022/07/21 15:50:59;;;;;;;6.35;2.95;;;;;;;;;;21257320;27;20054;-55
2022/07/21 16:01:01;;;;;;;6.40;3.03;;;;;;;;;;21256857;27;20539;-57
2022/07/21 16:11:03;;;;;;;9.52;3.17;;;;;;;;;;21254967;27;20061;-56
2022/07/21 16:21:05;;;;;;;7.38;3.40;;;;;;;;;;21254013;27;20089;-56
2022/07/21 16:31:07;;;;;;;7.18;2.75;;;;;;;;;;21255132;27;20051;-55
2022/07/21 16:41:09;;;;;;;9.27;2.50;;;;;;;;;;21253050;27;20047;-57
2022/07/21 16:51:11;;;;;;;8.27;3.10;;;;;;;;;;21305616;27;20091;-55
2022/07/21 17:01:13;;;;;;;7.97;4.00;;;;;;;;;;21337933;27;20439;-59
2022/07/21 17:11:15;;;;;;;6.30;2.65;;;;;;;;;;21335801;27;20047;-60
2022/07/21 17:21:18;;;;;;;5.22;2.70;;;;;;;;;;21259631;27;20043;-57
2022/07/21 17:31:21;;;;;;;5.88;3.40;;;;;;;;;;21274373;27;20053;-55
2022/07/21 17:41:23;;;;;;;6.72;4.07;;;;;;;;;;21284892;27;20113;-55
2022/07/21 17:51:25;;;;;;;6.05;3.20;;;;;;;;;;21247408;27;20513;-56
2022/07/21 18:01:27;;;;;;;4.35;2.80;;;;;;;;;;21245128;27;20043;-55
2022/07/21 18:11:31;;;;;;;7.90;3.55;;;;;;;;;;21246970;27;20548;-57
2022/07/21 18:21:33;;;;;;;13.55;12.15;;;;;;;;;;21246693;27;20086;-58
2022/07/21 18:31:36;;;;;;;5.43;3.08;;;;;;;;;;21246638;27;20043;-58
2022/07/21 18:41:37;;;;;;;8.68;3.95;;;;;;;;;;21246233;28;20047;-58
2022/07/21 18:51:39;;;;;;;6.32;3.60;;;;;;;;;;21244908;27;20097;-56
2022/07/21 19:01:41;;;;;;;4.93;2.72;;;;;;;;;;21243754;28;20047;-57
2022/07/21 19:11:44;;;;;;;8.23;3.33;;;;;;;;;;21268725;27;20042;-58
2022/07/21 19:21:46;;;;;;;7.32;3.28;;;;;;;;;;21315194;27;20133;-58
2022/07/21 19:31:53;;;;;;;7.35;4.45;;;;;;;;;;21344449;27;20055;-54
2022/07/21 19:41:55;;;;;;;11.05;9.95;;;;;;;;;;21268386;27;20142;-58
2022/07/21 19:51:58;;;;;;;7.57;3.40;;;;;;;;;;21255772;27;20123;-56
2022/07/21 20:02:00;;;;;;;7.72;3.55;;;;;;;;;;21272668;27;20506;-55
2022/07/21 20:12:03;;;;;;;7.50;3.63;;;;;;;;;;21308338;27;20047;-59
2022/07/21 20:22:04;;;;;;;6.75;4.60;;;34.40;20.40;;;;;;21282515;27;20094;-57
2022/07/21 20:32:07;;;;;;;7.70;4.40;;;34.40;20.10;;;;;;21340980;27;20057;-55
2022/07/21 20:42:09;;;;;;;12.48;5.22;;;34.40;20.20;;;;;;21320963;27;20506;-58
2022/07/21 20:52:11;;;;;;;8.98;5.03;;;34.30;20.20;;;;;;21320570;27;20047;-57
2022/07/21 21:02:14;;;;;;;10.80;6.40;;;34.30;20.60;;;;;;21339146;27;20129;-55
2022/07/21 21:12:15;;;;;;;16.10;9.00;;;34.00;21.50;;;;;;21337555;27;20482;-56
2022/07/21 21:22:18;;;;;;;14.40;8.55;;;33.90;22.50;;;;;;21336470;27;20082;-55
2022/07/21 21:32:20;;;;;;;16.10;9.30;;;33.60;22.90;;;;;;21336066;27;20074;-56
2022/07/21 21:42:22;;;;;;;11.27;7.00;;;33.40;23.20;;;;;;21334618;27;20065;-56
2022/07/21 21:52:24;;;;;;;11.32;5.95;;;33.30;23.10;;;;;;21335894;27;20406;-58
2022/07/21 22:02:26;;;;;;;11.43;4.90;;;33.20;23.50;;;;;;21334202;27;20054;-57
2022/07/21 22:12:28;;;;;;;9.77;3.78;;;33.10;22.40;;;;;;21335357;27;20475;-55
2022/07/21 22:22:32;;;;;;;7.90;3.70;;;33.00;23.30;;;;;;21334490;27;20047;-56
2022/07/21 22:32:34;;;;;;;8.55;3.70;;;32.90;23.50;;;;;;21334081;27;20043;-56
2022/07/21 22:42:36;;;;;;;9.15;4.00;;;32.90;23.70;;;;;;21255258;27;20047;-56
2022/07/21 22:52:38;;;;;;;13.25;4.28;;;32.70;24.10;;;;;;21263721;27;20067;-59
2022/07/21 23:02:40;;;;;;;11.30;4.38;;;32.60;24.30;;;;;;21263019;27;20178;-54
2022/07/21 23:12:41;;;;;;;9.18;3.38;;;32.50;24.40;;;;;;21261693;27;20402;-56
2022/07/21 23:22:43;;;;;;;13.82;3.53;;;32.40;24.80;;;;;;21261557;27;20062;-56
2022/07/21 23:32:45;;;;;;;12.05;3.42;;;32.20;25.20;;;;;;21259986;27;20126;-59
2022/07/21 23:42:48;;;;;;;10.50;3.90;;;32.10;25.60;;;;;;21258967;27;20051;-57
2022/07/21 23:52:50;;;;;;;8.65;3.42;;;31.90;26.20;;;;;;21238404;27;20043;-58
